Time;durP1;ratioP1;P1;durP2;ratioP2;P2;SDS_P1;SDS_P2;PMS_P1;PMS_P2;Temp;Humidity;BMP_temperature;BMP_pressure;BME280_temperature;BME280_humidity;BME280_pressure;Samples;Min_cycle;Max_cycle;Signal;HPM_P1;HPM_P2
2022/09/21 00:01:16;;;;;;;2.47;1.77;;;;;;;9.92;99.36;98946.86;1859692;77;21890;-77
2022/09/21 00:03:43;;;;;;;2.15;1.52;;;;;;;9.92;99.43;98938.98;1860252;77;21054;-79
2022/09/21 00:06:16;;;;;;;2.17;1.47;;;;;;;9.91;99.46;98947.77;1859513;77;20990;-78
2022/09/21 00:08:44;;;;;;;1.67;1.57;;;;;;;9.90;99.49;98940.82;1860372;77;21058;-78
2022/09/21 00:11:17;;;;;;;2.17;1.65;;;;;;;9.89;99.49;98945.67;1859633;77;21592;-78
2022/09/21 00:13:45;;;;;;;2.45;1.67;;;;;;;9.88;99.55;98957.09;1859839;77;21086;-79
2022/09/21 00:16:13;;;;;;;3.60;1.80;;;;;;;9.86;99.62;98947.10;1859573;77;20963;-79
2022/09/21 00:18:39;;;;;;;2.02;1.80;;;;;;;9.84;99.69;98948.95;1859891;77;21504;-78
2022/09/21 00:21:11;;;;;;;1.72;1.62;;;;;;;9.88;99.77;98946.58;1859810;77;21349;-79
2022/09/21 00:23:38;;;;;;;1.92;1.60;;;;;;;9.89;99.76;98949.61;1826555;77;21105;-79
2022/09/21 00:26:14;;;;;;;2.02;1.90;;;;;;;9.91;99.84;98950.39;1860456;77;21103;-79
2022/09/21 00:28:41;;;;;;;2.17;1.90;;;;;;;9.90;99.86;98946.08;1859282;77;21359;-79
2022/09/21 00:31:12;;;;;;;3.30;1.87;;;;;;;9.92;99.80;98948.17;1859854;77;21070;-78
2022/09/21 00:33:41;;;;;;;1.95;1.85;;;;;;;9.93;99.77;98948.55;1859995;77;21031;-78
2022/09/21 00:36:10;;;;;;;1.82;1.72;;;;;;;9.94;99.76;98949.43;1859511;77;21078;-78
2022/09/21 00:38:38;;;;;;;2.98;1.60;;;;;;;9.96;99.64;98952.38;1860161;77;21144;-79
2022/09/21 00:41:06;;;;;;;1.70;1.60;;;;;;;9.98;99.53;98952.31;1843921;77;22001;-79
2022/09/21 00:43:35;;;;;;;2.58;1.62;;;;;;;9.98;99.47;98940.02;1811801;79;21023;-78
2022/09/21 00:46:05;;;;;;;2.25;1.65;;;;;;;9.94;99.46;98943.70;1811852;79;21121;-79
2022/09/21 00:48:32;;;;;;;2.10;1.72;;;;;;;9.92;99.53;98949.48;1811743;79;20959;-78
2022/09/21 00:51:03;;;;;;;3.15;1.70;;;;;;;9.93;99.53;98945.92;1812093;78;21211;-78
2022/09/21 00:53:30;;;;;;;4.78;1.90;;;;;;;9.95;99.52;98945.43;1811732;79;21025;-78
2022/09/21 00:55:57;;;;;;;1.72;1.62;;;;;;;9.93;99.45;98945.08;1811739;79;21474;-78
2022/09/21 00:58:37;;;;;;;5.15;2.05;;;;;;;9.88;99.51;98943.95;1812222;79;21557;-78
2022/09/21 01:01:03;;;;;;;3.08;1.80;;;;;;;9.86;99.57;98943.16;1811610;79;21129;-78
2022/09/21 01:03:31;;;;;;;1.60;1.40;;;;;;;9.86;99.61;98944.01;1812013;79;21131;-78
2022/09/21 01:05:57;;;;;;;2.27;1.40;;;;;;;9.83;99.69;98934.09;1811462;78;20943;-78
2022/09/21 01:08:25;;;;;;;1.70;1.60;;;;;;;9.77;99.83;98935.67;1812236;78;21082;-79
2022/09/21 01:11:21;;;;;;;4.05;1.40;;;;;;;9.77;99.90;98944.86;1811548;79;21591;-78
2022/09/21 01:14:15;;;;;;;1.82;1.72;;;;;;;9.78;99.91;98943.93;1811851;79;21616;-79
2022/09/21 01:17:14;;;;;;;2.47;1.80;;;;;;;9.78;99.99;98939.52;1811900;78;21498;-79
2022/09/21 01:20:21;;;;;;;2.22;1.70;;;;;;;9.78;100.00;98941.30;1811706;79;21066;-78
2022/09/21 01:23:22;;;;;;;1.75;1.65;;;;;;;9.79;100.00;98943.02;1811494;78;26729;-78
2022/09/21 01:25:54;;;;;;;2.67;1.62;;;;;;;9.79;100.00;98941.71;1781454;80;21042;-78
2022/09/21 01:29:02;;;;;;;2.25;1.60;;;;;;;9.77;100.00;98939.14;1781571;79;21084;-79
2022/09/21 01:31:41;;;;;;;1.87;1.60;;;;;;;9.75;100.00;98937.05;1748887;82;21572;-78
2022/09/21 01:34:15;;;;;;;1.92;1.80;;;;;;;9.76;100.00;98943.98;1781422;80;20955;-78
2022/09/21 01:36:41;;;;;;;2.47;2.25;;;;;;;9.78;100.00;98943.46;1812046;78;28199;-80
2022/09/21 01:39:12;;;;;;;2.98;1.75;;;;;;;9.80;100.00;98947.34;1767534;81;21044;-78
2022/09/21 01:41:40;;;;;;;2.45;1.72;;;;;;;9.82;100.00;98948.16;1811957;77;21089;-78
2022/09/21 01:44:14;;;;;;;1.85;1.75;;;;;;;9.83;100.00;98948.09;1767466;80;21899;-78
2022/09/21 01:46:41;;;;;;;1.80;1.70;;;;;;;9.82;100.00;98945.53;1811836;79;21502;-79
2022/09/21 01:49:13;;;;;;;4.03;1.80;;;;;;;9.79;100.00;98950.91;1811674;79;21011;-78
2022/09/21 01:51:43;;;;;;;2.15;2.05;;;;;;;9.80;100.00;98946.91;1808230;78;21124;-78
2022/09/21 01:54:14;;;;;;;2.80;2.22;;;;;;;9.81;100.00;98953.85;1811600;79;21030;-79
2022/09/21 01:56:51;;;;;;;6.70;2.00;;;;;;;9.81;100.00;98947.75;1811633;78;21126;-79
2022/09/21 01:59:25;;;;;;;1.70;1.60;;;;;;;9.79;100.00;98946.50;1811457;78;21529;-78
2022/09/21 02:01:57;;;;;;;1.85;1.75;;;;;;;9.80;100.00;98937.70;1812113;79;20986;-77
2022/09/21 02:04:24;;;;;;;2.72;2.05;;;;;;;9.80;100.00;98936.83;1811746;79;21137;-78
2022/09/21 02:06:50;;;;;;;1.87;1.77;;;;;;;9.81;100.00;98942.50;1812066;79;21093;-77
2022/09/21 02:09:18;;;;;;;2.17;1.95;;;;;;;9.82;100.00;98948.16;1811539;78;21023;-79
2022/09/21 02:11:45;;;;;;;1.62;1.52;;;;;;;9.83;100.00;98948.54;1811784;79;21089;-79
2022/09/21 02:14:15;;;;;;;1.87;1.77;;;;;;;9.83;100.00;98947.22;1812032;78;20983;-78
2022/09/21 02:17:23;;;;;;;2.10;2.00;;;;;;;9.81;100.00;98945.97;1811805;78;21047;-79
2022/09/21 02:20:07;;;;;;;2.25;2.05;;;;;;;9.82;100.00;98948.16;1811803;78;21053;-79
2022/09/21 02:23:15;;;;;;;2.02;1.85;;;;;;;9.82;100.00;98951.63;1811858;79;21137;-79
2022/09/21 02:25:57;;;;;;;4.22;2.00;;;;;;;9.80;100.00;98949.97;1811581;79;21474;-80
2022/09/21 02:28:29;;;;;;;1.90;1.80;;;;;;;9.79;100.00;98950.91;1811714;79;20979;-78
2022/09/21 02:31:14;;;;;;;2.52;2.27;;;;;;;9.75;100.00;98957.18;1811609;78;21105;-80
2022/09/21 02:33:57;;;;;;;3.62;1.80;;;;;;;9.75;100.00;98949.30;1810873;78;21038;-80
2022/09/21 02:36:29;;;;;;;1.95;1.85;;;;;;;9.76;100.00;98958.91;1767638;81;21125;-80
2022/09/21 02:39:04;;;;;;;2.27;1.90;;;;;;;9.77;100.00;98958.84;1811705;79;20971;-79
2022/09/21 02:41:51;;;;;;;;;;;;;;;9.77;100.00;98948.34;1825553;77;21009;-79
2022/09/21 02:44:24;;;;;;;1.72;1.62;;;;;;;9.78;100.00;98953.12;1859524;77;20143;-79
2022/09/21 02:46:56;;;;;;;3.62;2.20;;;;;;;9.77;100.00;98959.31;1859761;77;22076;-79
2022/09/21 02:49:30;;;;;;;3.17;1.90;;;;;;;9.75;100.00;98954.55;1859807;77;21057;-77
2022/09/21 02:51:58;;;;;;;2.45;2.10;;;;;;;9.75;100.00;98961.12;1860185;77;20983;-78
2022/09/21 02:54:28;;;;;;;3.40;1.80;;;;;;;9.78;100.00;98968.89;1859675;77;21541;-78
2022/09/21 02:56:55;;;;;;;2.10;1.95;;;;;;;9.79;100.00;98965.36;1826952;77;22238;-77
2022/09/21 02:59:22;;;;;;;1.92;1.82;;;;;;;9.77;99.98;98961.48;1859776;77;21468;-77
2022/09/21 03:01:49;;;;;;;1.72;1.62;;;;;;;9.78;99.96;98968.42;1859961;77;21810;-79
2022/09/21 03:04:16;;;;;;;3.12;2.17;;;;;;;9.80;99.90;98967.92;1791117;79;21105;-78
2022/09/21 03:06:43;;;;;;;3.72;2.10;;;;;;;9.83;99.83;98971.75;1819856;78;21030;-79
2022/09/21 03:09:09;;;;;;;1.85;1.62;;;;;;;9.84;99.73;98968.19;1780085;80;21075;-79
2022/09/21 03:11:36;;;;;;;2.37;1.65;;;;;;;9.84;99.59;98972.59;1819720;78;20982;-78
2022/09/21 03:14:07;;;;;;;1.80;1.70;;;;;;;9.85;99.41;98975.16;1780230;80;21113;-78
2022/09/21 03:16:35;;;;;;;3.33;1.67;;;;;;;9.84;99.17;98976.53;1819727;78;21096;-78
2022/09/21 03:19:04;;;;;;;1.62;1.52;;;;;;;9.82;99.11;98971.81;1780283;80;20985;-79
2022/09/21 03:21:31;;;;;;;4.03;1.95;;;;;;;9.78;99.03;98979.39;1781584;80;21101;-79
2022/09/21 03:23:57;;;;;;;2.17;1.82;;;;;;;9.77;98.98;98977.23;1819543;78;21544;-78
2022/09/21 03:26:24;;;;;;;1.60;1.50;;;;;;;9.79;98.97;98981.13;1814113;79;21749;-79
2022/09/21 03:28:53;;;;;;;1.60;1.50;;;;;;;9.80;99.02;98986.75;1813672;79;21030;-79
2022/09/21 03:31:19;;;;;;;1.60;1.50;;;;;;;9.78;98.98;98985.96;1813602;79;21018;-78
2022/09/21 03:33:45;;;;;;;1.65;1.55;;;;;;;9.76;98.96;98982.55;1813903;79;21058;-79
2022/09/21 03:36:12;;;;;;;2.95;1.60;;;;;;;9.75;98.99;98987.39;1813635;79;21496;-79
2022/09/21 03:38:38;;;;;;;2.10;1.70;;;;;;;9.75;99.11;98987.39;1813752;79;21837;-79
2022/09/21 03:41:05;;;;;;;2.05;1.60;;;;;;;9.75;99.18;98986.08;1813801;79;21529;-78
2022/09/21 03:43:33;;;;;;;2.00;1.50;;;;;;;9.76;99.19;98979.92;1824547;78;21038;-77
2022/09/21 03:45:59;;;;;;;1.70;1.60;;;;;;;9.78;99.13;98983.34;1825202;78;21116;-78
2022/09/21 03:48:26;;;;;;;3.10;1.70;;;;;;;9.76;99.15;98982.55;1825388;78;20990;-79
2022/09/21 03:50:52;;;;;;;1.62;1.52;;;;;;;9.78;99.21;98984.18;1825406;78;21100;-80
2022/09/21 03:53:19;;;;;;;1.60;1.50;;;;;;;9.82;99.16;98983.62;1825147;78;21124;-79
2022/09/21 03:55:46;;;;;;;1.70;1.60;;;;;;;9.84;99.08;98979.16;1825075;78;21030;-79
2022/09/21 03:58:12;;;;;;;3.83;1.60;;;;;;;9.85;99.08;98982.16;1825353;78;21081;-79
2022/09/21 04:00:39;;;;;;;3.65;2.00;;;;;;;9.84;99.01;98985.73;1825381;78;21064;-80
2022/09/21 04:03:05;;;;;;;2.33;1.70;;;;;;;9.82;98.97;98984.94;1824931;78;21270;-78
2022/09/21 04:05:33;;;;;;;2.55;1.50;;;;;;;9.82;98.97;98995.45;1825568;78;21081;-79
2022/09/21 04:08:01;;;;;;;3.10;1.42;;;;;;;9.80;99.00;98992.01;1825181;78;20974;-79
2022/09/21 04:10:32;;;;;;;1.98;1.82;;;;;;;9.80;99.07;98995.95;1825132;78;21049;-79
2022/09/21 04:13:03;;;;;;;2.02;1.82;;;;;;;9.81;99.06;98999.83;1825142;78;21706;-79
2022/09/21 04:15:30;;;;;;;1.40;1.40;;;;;;;9.83;99.04;99001.09;1825020;78;21128;-79
2022/09/21 04:17:58;;;;;;;2.40;2.20;;;;;;;9.84;99.01;99003.66;1825463;78;21026;-79
2022/09/21 04:20:24;;;;;;;3.65;1.95;;;;;;;9.85;98.96;99000.56;1824907;78;21493;-79
2022/09/21 04:22:51;;;;;;;2.47;2.27;;;;;;;9.84;98.92;99006.75;1825800;78;20974;-79
2022/09/21 04:25:17;;;;;;;2.90;2.58;;;;;;;9.84;98.80;99004.13;1825165;78;20970;-80
2022/09/21 04:27:45;;;;;;;4.87;3.45;;;;;;;9.84;98.76;99008.06;1825259;78;21222;-78
2022/09/21 04:30:13;;;;;;;3.17;2.98;;;;;;;9.83;98.65;99006.34;1825346;78;21124;-79
2022/09/21 04:32:39;;;;;;;3.67;2.80;;;;;;;9.81;98.65;99010.81;1825127;78;21092;-79
2022/09/21 04:35:07;;;;;;;2.35;2.25;;;;;;;9.81;98.67;99012.13;1824932;78;21034;-79
2022/09/21 04:37:33;;;;;;;4.00;2.55;;;;;;;9.80;98.54;99013.02;1825335;78;21044;-79
2022/09/21 04:40:00;;;;;;;1.95;1.85;;;;;;;9.80;98.57;99019.16;1825035;78;21679;-78
2022/09/21 04:42:28;;;;;;;2.20;2.00;;;;;;;9.81;98.62;99017.37;1825087;78;21108;-80
2022/09/21 04:44:55;;;;;;;3.27;1.90;;;;;;;9.81;98.63;99020.00;1825134;78;21022;-80
2022/09/21 04:47:23;;;;;;;2.00;1.90;;;;;;;9.85;98.56;99022.89;1825307;78;21038;-78
2022/09/21 04:49:51;;;;;;;3.45;1.80;;;;;;;9.87;98.57;99022.40;1825169;78;21089;-79
2022/09/21 04:52:18;;;;;;;3.58;1.92;;;;;;;9.86;98.59;99024.62;1825468;78;21141;-79
2022/09/21 04:54:46;;;;;;;1.77;1.67;;;;;;;9.86;98.66;99024.15;1825088;78;21076;-79
2022/09/21 04:57:13;;;;;;;3.12;2.10;;;;;;;9.89;98.69;99020.56;1825561;78;21570;-79
2022/09/21 04:59:39;;;;;;;2.98;2.42;;;;;;;9.88;98.55;99030.66;1825183;78;21061;-78
2022/09/21 05:02:08;;;;;;;3.15;2.15;;;;;;;9.86;98.54;99021.98;1825112;78;21095;-79
2022/09/21 05:04:35;;;;;;;2.30;2.20;;;;;;;9.84;98.53;99030.40;1825432;78;22097;-79
2022/09/21 05:07:01;;;;;;;2.00;1.80;;;;;;;9.84;98.51;99019.42;1825181;78;21586;-79
2022/09/21 05:12:12;;;;;;;2.12;2.02;;;;;;;9.84;98.66;99017.27;1825691;78;21583;-79
2022/09/21 05:14:39;;;;;;;3.37;1.90;;;;;;;9.85;98.69;99013.70;1825431;78;21504;-78
2022/09/21 05:17:06;;;;;;;3.15;2.35;;;;;;;9.90;98.70;99016.15;1825483;78;21126;-77
2022/09/21 05:19:33;;;;;;;2.75;2.55;;;;;;;9.93;98.68;99027.39;1825238;78;21041;-78
2022/09/21 05:22:00;;;;;;;2.40;2.30;;;;;;;9.94;98.79;99025.17;1825351;78;21022;-78
2022/09/21 05:24:26;;;;;;;4.22;2.40;;;;;;;9.97;98.88;99029.00;1825456;78;21109;-78
2022/09/21 05:26:53;;;;;;;2.15;1.95;;;;;;;9.98;98.94;99024.12;1825401;78;21001;-78
2022/09/21 05:29:20;;;;;;;1.98;1.80;;;;;;;10.01;98.99;99031.04;1825059;78;21093;-78
2022/09/21 05:32:05;;;;;;;1.90;1.80;;;;;;;10.02;99.02;99027.03;1825418;78;21026;-78
2022/09/21 05:34:52;;;;;;;;;;;;;;;10.01;99.02;99025.31;1828160;78;20959;-78
2022/09/21 05:38:05;;;;;;;2.20;2.00;;;;;;;10.01;98.90;99026.63;1825379;78;20498;-80
2022/09/21 05:40:32;;;;;;;1.87;1.77;;;;;;;9.98;99.03;99026.75;1825179;78;21543;-77
2022/09/21 05:42:59;;;;;;;2.77;1.90;;;;;;;9.95;99.15;99024.70;1822006;78;21131;-78
2022/09/21 05:45:27;;;;;;;2.05;1.80;;;;;;;9.94;99.27;99029.58;1818170;77;21517;-78
2022/09/21 05:48:17;;;;;;;2.92;2.10;;;;;;;9.96;99.42;99035.16;1817912;77;21018;-77
2022/09/21 05:51:04;;;;;;;1.90;1.80;;;;;;;9.99;99.54;99028.94;1816936;78;21030;-78
2022/09/21 05:53:51;;;;;;;1.67;1.57;;;;;;;9.98;99.77;99032.47;1817892;77;21018;-78
2022/09/21 05:56:48;;;;;;;3.58;1.42;;;;;;;9.92;100.00;99033.58;1817857;78;21779;-78
2022/09/21 05:59:49;;;;;;;1.50;1.40;;;;;;;9.86;100.00;99041.70;1817569;78;20947;-79
2022/09/21 06:02:42;;;;;;;2.65;1.40;;;;;;;9.83;100.00;99043.13;1818111;78;21073;-78
2022/09/21 06:05:13;;;;;;;1.57;1.47;;;;;;;9.81;100.00;99048.91;1817597;78;21026;-78
2022/09/21 06:07:40;;;;;;;2.58;1.42;;;;;;;9.78;100.00;99052.96;1818120;78;21747;-78
2022/09/21 06:10:08;;;;;;;3.47;1.60;;;;;;;9.80;100.00;99049.81;1817661;77;21874;-78
2022/09/21 06:12:36;;;;;;;1.60;1.50;;;;;;;9.79;100.00;99054.22;1817818;77;21025;-79
2022/09/21 06:15:05;;;;;;;1.47;1.20;;;;;;;9.82;100.00;99046.22;1817916;78;21073;-78
2022/09/21 06:17:33;;;;;;;1.50;1.40;;;;;;;9.85;100.00;99052.67;1817673;77;21023;-79
2022/09/21 06:20:01;;;;;;;2.52;1.40;;;;;;;9.89;100.00;99048.15;1818089;77;21100;-79
2022/09/21 06:22:28;;;;;;;3.62;1.37;;;;;;;9.94;100.00;99050.61;1817569;78;21028;-78
2022/09/21 06:24:55;;;;;;;1.75;1.60;;;;;;;9.96;100.00;99049.61;1818080;78;21026;-79
2022/09/21 06:27:21;;;;;;;2.08;1.72;;;;;;;10.02;100.00;99055.95;1817656;78;21045;-79
2022/09/21 06:29:48;;;;;;;1.90;1.47;;;;;;;10.06;100.00;99061.09;1817664;78;21046;-78
2022/09/21 06:32:15;;;;;;;1.57;1.30;;;;;;;10.09;100.00;99059.66;1817661;77;21856;-80
2022/09/21 06:34:41;;;;;;;1.37;1.30;;;;;;;10.13;100.00;99062.55;1817833;77;21089;-79
2022/09/21 06:37:08;;;;;;;2.60;1.50;;;;;;;10.13;100.00;99062.55;1817532;77;21482;-78
2022/09/21 06:39:34;;;;;;;1.40;1.40;;;;;;;10.12;100.00;99066.08;1817948;77;21580;-79
2022/09/21 06:42:01;;;;;;;1.50;1.40;;;;;;;10.15;100.00;99063.33;1817942;78;21494;-78
2022/09/21 06:44:29;;;;;;;1.65;1.37;;;;;;;10.16;100.00;99061.96;1822145;78;20991;-79
2022/09/21 06:46:56;;;;;;;3.25;1.45;;;;;;;10.16;100.00;99061.96;1822298;78;21222;-79
2022/09/21 06:49:23;;;;;;;1.50;1.40;;;;;;;10.16;100.00;99067.69;1822174;78;21010;-78
2022/09/21 06:51:49;;;;;;;2.70;1.50;;;;;;;10.17;100.00;99066.75;1822386;78;21081;-78
2022/09/21 06:54:17;;;;;;;1.20;1.10;;;;;;;10.21;100.00;99068.36;1822312;78;21023;-78
2022/09/21 06:56:43;;;;;;;1.47;1.37;;;;;;;10.24;100.00;99073.50;1822380;78;20983;-79
2022/09/21 06:59:11;;;;;;;3.02;1.60;;;;;;;10.21;100.00;99065.73;1822715;78;21077;-80
2022/09/21 07:01:38;;;;;;;2.50;1.30;;;;;;;10.19;100.00;99074.14;1822306;78;20963;-79
2022/09/21 07:04:05;;;;;;;2.60;1.50;;;;;;;10.12;100.00;99073.97;1822726;78;21057;-79
2022/09/21 07:06:33;;;;;;;1.98;1.87;;;;;;;10.04;100.00;99083.02;1822368;78;21062;-78
2022/09/21 07:09:01;;;;;;;1.80;1.70;;;;;;;10.00;100.00;99085.39;1822348;78;20991;-78
2022/09/21 07:11:28;;;;;;;1.50;1.40;;;;;;;9.94;100.00;99086.93;1822614;78;22213;-79
2022/09/21 07:13:57;;;;;;;1.57;1.50;;;;;;;9.91;100.00;99084.41;1822134;78;20991;-78
2022/09/21 07:16:24;;;;;;;4.33;1.40;;;;;;;9.89;100.00;99088.88;1822243;78;21466;-79
2022/09/21 07:18:50;;;;;;;1.65;1.55;;;;;;;9.88;100.00;99088.47;1822244;78;22020;-78
2022/09/21 07:21:17;;;;;;;4.08;1.90;;;;;;;9.91;100.00;99088.36;1822308;78;21438;-79
2022/09/21 07:23:49;;;;;;;2.42;1.80;;;;;;;9.92;100.00;99094.02;1822694;78;21675;-79
2022/09/21 07:26:15;;;;;;;2.05;1.52;;;;;;;9.91;100.00;99102.81;1822137;78;20966;-78
2022/09/21 07:28:44;;;;;;;2.55;1.85;;;;;;;9.93;100.00;99098.34;1822722;78;21037;-79
2022/09/21 07:31:13;;;;;;;1.85;1.75;;;;;;;9.96;100.00;99101.33;1822656;78;21043;-78
2022/09/21 07:33:41;;;;;;;2.60;2.40;;;;;;;9.97;100.00;99099.95;1822410;78;21186;-78
2022/09/21 07:36:11;;;;;;;2.75;2.45;;;;;;;9.94;100.00;99101.85;1822622;78;21100;-78
2022/09/21 07:38:40;;;;;;;2.25;2.00;;;;;;;9.97;100.00;99107.84;1822323;78;21026;-78
2022/09/21 07:41:11;;;;;;;2.27;2.08;;;;;;;9.97;100.00;99101.27;1822276;78;21305;-79
2022/09/21 07:43:39;;;;;;;2.25;2.02;;;;;;;10.00;100.00;99110.36;1823875;78;21659;-79
2022/09/21 07:46:13;;;;;;;2.37;2.17;;;;;;;9.99;100.00;99109.95;1825370;78;21105;-79
2022/09/21 07:48:40;;;;;;;1.70;1.60;;;;;;;10.02;100.00;99112.92;1825503;78;21101;-77
2022/09/21 07:51:09;;;;;;;1.90;1.80;;;;;;;10.02;100.00;99114.23;1825218;78;21096;-78
2022/09/21 07:53:39;;;;;;;4.15;2.08;;;;;;;10.03;100.00;99111.52;1825683;78;20994;-78
2022/09/21 07:56:13;;;;;;;1.60;1.45;;;;;;;10.07;100.00;99114.04;1825152;78;21109;-79
2022/09/21 08:01:24;;;;;;;;;;;;;;;10.14;100.00;99118.16;1827834;78;21921;-78
2022/09/21 08:03:52;;;;;;;3.00;2.80;;;;;;;10.15;100.00;99119.39;1825476;78;20943;-79
2022/09/21 08:06:19;;;;;;;4.67;3.17;;;;;;;10.16;100.00;99118.48;1824904;78;21089;-78
2022/09/21 08:08:47;;;;;;;2.95;2.75;;;;;;;10.18;100.00;99119.73;1825207;78;21026;-78
2022/09/21 08:11:22;;;;;;;2.65;2.45;;;;;;;10.20;100.00;99125.78;1825196;78;21089;-78
2022/09/21 08:13:53;;;;;;;2.70;1.95;;;;;;;10.21;100.00;99126.20;1824637;78;21810;-78
2022/09/21 08:16:20;;;;;;;3.05;2.83;;;;;;;10.26;100.00;99131.28;1824976;78;21026;-78
2022/09/21 08:18:46;;;;;;;5.25;3.30;;;;;;;10.25;100.00;99133.03;1824991;78;20987;-78
2022/09/21 08:21:13;;;;;;;5.12;3.33;;;;;;;10.28;100.00;99130.29;1825219;78;21062;-79
2022/09/21 08:23:41;;;;;;;4.08;3.33;;;;;;;10.29;100.00;99133.33;1825264;78;20970;-78
2022/09/21 08:26:18;;;;;;;8.18;3.40;;;;;;;10.33;100.00;99123.58;1825324;78;21254;-78
2022/09/21 08:28:41;;;;;;;4.62;3.02;;;;;;;10.36;100.00;99128.25;1824262;78;20963;-79
2022/09/21 08:31:08;;;;;;;2.80;2.60;;;;;;;10.38;100.00;99126.41;1825285;78;21034;-78
2022/09/21 08:33:36;;;;;;;3.42;3.12;;;;;;;10.43;100.00;99125.38;1791462;78;21006;-78
2022/09/21 08:36:03;;;;;;;6.70;3.00;;;;;;;10.46;100.00;99127.89;1825306;78;21022;-79
2022/09/21 08:38:34;;;;;;;6.22;3.17;;;;;;;10.46;100.00;99133.16;1825315;78;22092;-79
2022/09/21 08:41:02;;;;;;;2.98;2.67;;;;;;;10.46;100.00;99129.20;1824934;78;21084;-78
2022/09/21 08:43:42;;;;;;;2.62;2.42;;;;;;;10.49;100.00;99130.38;1825275;78;22049;-78
2022/09/21 08:46:16;;;;;;;3.52;3.02;;;;;;;10.52;100.00;99124.99;1825365;78;21539;-79
2022/09/21 08:48:54;;;;;;;2.92;2.67;;;;;;;10.58;100.00;99124.75;1825539;78;22204;-78
2022/09/21 08:51:23;;;;;;;4.10;3.00;;;;;;;10.60;100.00;99132.12;1825599;78;21127;-77
2022/09/21 08:53:54;;;;;;;4.40;2.25;;;;;;;10.59;99.70;99131.27;1825262;78;21010;-78
2022/09/21 08:56:23;;;;;;;2.52;2.33;;;;;;;10.61;99.65;99132.53;1825580;78;21607;-79
2022/09/21 08:58:49;;;;;;;3.35;2.25;;;;;;;10.63;99.62;99133.78;1825283;78;21109;-78
2022/09/21 09:01:41;;;;;;;6.55;2.50;;;;;;;10.65;99.54;99131.47;1825246;78;21101;-78
2022/09/21 09:04:40;;;;;;;2.60;2.40;;;;;;;10.71;99.49;99135.17;1825015;78;21422;-78
2022/09/21 09:07:51;;;;;;;2.47;2.27;;;;;;;10.75;98.96;99135.42;1799084;78;21109;-79
2022/09/21 09:10:35;;;;;;;3.65;2.30;;;;;;;10.82;99.03;99140.45;1825109;78;21002;-79
2022/09/21 09:13:47;;;;;;;3.00;2.70;;;;;;;10.85;98.43;99133.75;1825819;78;21054;-78
2022/09/21 09:16:35;;;;;;;2.30;2.10;;;;;;;10.85;98.02;99135.06;1825099;78;21057;-78
2022/09/21 09:19:29;;;;;;;4.00;2.20;;;;;;;10.85;97.86;99135.06;1825661;78;21816;-79
2022/09/21 09:21:56;;;;;;;2.50;2.33;;;;;;;10.83;97.79;99134.28;1825112;78;20970;-79
2022/09/21 09:24:51;;;;;;;2.67;2.20;;;;;;;10.77;97.45;99132.27;1825436;78;20978;-78
2022/09/21 09:27:26;;;;;;;2.70;2.50;;;;;;;10.73;97.23;99137.27;1825255;78;26535;-79
2022/09/21 09:30:20;;;;;;;2.02;1.92;;;;;;;10.75;97.42;99139.37;1825569;78;20989;-79
2022/09/21 09:32:55;;;;;;;2.23;2.13;;;;;;;10.77;97.62;99136.21;1825573;78;21125;-78
2022/09/21 09:35:29;;;;;;;2.25;2.10;;;;;;;10.84;97.51;99137.28;1825434;78;21756;-79
2022/09/21 09:38:01;;;;;;;2.20;2.10;;;;;;;10.90;97.71;99133.94;1825082;78;21053;-78
2022/09/21 09:40:34;;;;;;;2.08;1.98;;;;;;;11.01;97.68;99136.13;1824818;78;21104;-78
2022/09/21 09:43:11;;;;;;;2.30;2.10;;;;;;;11.03;96.35;99130.33;1823428;78;21022;-78
2022/09/21 09:45:49;;;;;;;5.00;2.12;;;;;;;11.01;96.03;99130.87;1825104;78;21114;-78
2022/09/21 09:48:25;;;;;;;2.30;2.10;;;;;;;11.03;95.99;99136.92;1823797;78;20989;-80
2022/09/21 09:50:51;;;;;;;2.12;1.98;;;;;;;11.06;95.67;99146.00;1825241;78;21010;-78
2022/09/21 09:53:20;;;;;;;4.87;1.87;;;;;;;11.08;95.16;99146.78;1825118;78;21127;-79
2022/09/21 09:55:54;;;;;;;2.67;1.85;;;;;;;11.06;94.67;99143.81;1825302;78;21623;-79
2022/09/21 09:58:47;;;;;;;2.80;2.30;;;;;;;11.06;94.73;99149.95;1825006;78;21146;-78
2022/09/21 10:01:40;;;;;;;4.85;2.22;;;;;;;11.11;94.75;99144.03;1825430;78;21045;-78
2022/09/21 10:04:10;;;;;;;3.95;2.10;;;;;;;11.19;94.52;99141.52;1825352;78;21132;-79
2022/09/21 10:06:37;;;;;;;2.05;1.95;;;;;;;11.19;94.44;99142.84;1825502;78;21473;-78
2022/09/21 10:09:25;;;;;;;2.00;1.90;;;;;;;11.24;94.90;99150.08;1825331;78;20951;-80
2022/09/21 10:11:55;;;;;;;2.77;1.90;;;;;;;11.29;94.43;99145.46;1827071;78;21139;-79
2022/09/21 10:14:24;;;;;;;3.42;2.02;;;;;;;11.35;94.00;99147.84;1824900;78;20959;-80
2022/09/21 10:16:53;;;;;;;2.30;2.10;;;;;;;11.41;93.77;99144.91;1825210;78;21575;-77
2022/09/21 10:19:22;;;;;;;4.33;2.00;;;;;;;11.46;93.58;99144.72;1825216;78;21057;-76
2022/09/21 10:21:57;;;;;;;5.40;1.87;;;;;;;11.49;92.94;99140.17;1825246;78;20987;-78
2022/09/21 10:24:29;;;;;;;;;;;;;;;11.53;92.04;99146.15;1827166;78;21791;-78
2022/09/21 10:27:12;;;;;;;2.75;2.20;;;;;;;11.56;91.29;99142.06;1825100;78;20189;-78
2022/09/21 10:29:45;;;;;;;3.20;1.75;;;;;;;11.60;90.76;99144.98;1825621;78;21678;-79
2022/09/21 10:32:16;;;;;;;2.72;1.82;;;;;;;11.64;90.41;99145.69;1825384;78;21049;-79
2022/09/21 10:35:09;;;;;;;7.33;1.80;;;;;;;11.69;90.38;99145.86;1825588;78;21100;-79
2022/09/21 10:37:41;;;;;;;5.67;1.62;;;;;;;11.72;89.69;99148.84;1825060;78;21944;-78
2022/09/21 10:40:23;;;;;;;1.92;1.52;;;;;;;11.70;89.08;99151.98;1825410;78;21058;-79
2022/09/21 10:42:55;;;;;;;1.55;1.45;;;;;;;11.68;89.40;99149.88;1825086;78;21117;-79
2022/09/21 10:45:31;;;;;;;4.33;1.75;;;;;;;11.62;88.36;99150.18;1819322;78;21517;-78
2022/09/21 10:48:12;;;;;;;2.60;2.40;;;;;;;11.52;87.80;99155.00;1797218;78;21014;-79
2022/09/21 10:50:51;;;;;;;3.52;2.15;;;;;;;11.50;88.23;99161.66;1817888;78;21151;-79
2022/09/21 10:53:31;;;;;;;4.10;3.08;;;;;;;11.46;88.58;99160.05;1797126;78;21007;-78
2022/09/21 10:56:08;;;;;;;2.60;2.40;;;;;;;11.45;89.17;99164.95;1817679;78;21073;-80
2022/09/21 10:58:36;;;;;;;2.85;2.17;;;;;;;11.42;89.17;99165.08;1817283;78;21045;-78
2022/09/21 11:01:21;;;;;;;4.83;2.00;;;;;;;11.41;89.21;99165.98;1818015;78;21407;-79
2022/09/21 11:04:07;;;;;;;5.65;2.42;;;;;;;11.38;89.49;99163.52;1817964;78;21079;-79
2022/09/21 11:06:41;;;;;;;6.03;2.12;;;;;;;11.36;89.21;99165.34;1818105;77;21117;-79
2022/09/21 11:09:30;;;;;;;3.42;1.98;;;;;;;11.32;89.28;99166.41;1817636;78;20995;-80
2022/09/21 11:12:32;;;;;;;2.12;1.92;;;;;;;11.31;89.66;99162.05;1817724;77;21019;-79
2022/09/21 11:15:32;;;;;;;2.58;2.20;;;;;;;11.28;89.76;99165.69;1817734;77;21080;-78
2022/09/21 11:18:14;;;;;;;2.65;2.15;;;;;;;11.30;90.08;99159.04;1809733;78;21569;-79
2022/09/21 11:20:57;;;;;;;3.87;1.87;;;;;;;11.36;90.58;99161.86;1842876;77;21589;-79
2022/09/21 11:23:43;;;;;;;3.30;1.80;;;;;;;11.39;90.83;99157.30;1817933;78;21058;-78
2022/09/21 11:26:24;;;;;;;2.50;1.90;;;;;;;11.40;90.57;99157.71;1785300;80;21089;-80
2022/09/21 11:29:09;;;;;;;2.30;2.10;;;;;;;11.41;90.65;99163.83;1853797;77;21125;-78
2022/09/21 11:31:50;;;;;;;2.75;2.17;;;;;;;11.36;90.52;99164.48;1785206;80;21247;-78
2022/09/21 11:34:37;;;;;;;2.17;2.02;;;;;;;11.32;91.34;99161.14;1854991;77;21038;-78
2022/09/21 11:37:24;;;;;;;2.20;2.00;;;;;;;11.30;92.14;99164.30;1817817;78;21062;-78
2022/09/21 11:40:25;;;;;;;2.70;2.20;;;;;;;11.31;92.84;99160.30;1785552;80;21042;-78
2022/09/21 11:43:25;;;;;;;6.50;2.55;;;;;;;11.34;93.31;99157.97;1770476;80;20983;-80
2022/09/21 11:46:30;;;;;;;2.98;2.00;;;;;;;11.42;93.44;99157.17;1813087;78;21109;-78
2022/09/21 11:49:02;;;;;;;3.27;2.60;;;;;;;11.46;93.42;99158.73;1818630;78;21086;-79
2022/09/21 11:51:53;;;;;;;4.10;2.65;;;;;;;11.58;93.74;99156.50;1819989;78;21425;-78
2022/09/21 11:54:46;;;;;;;3.10;2.30;;;;;;;11.71;93.64;99151.91;1848117;77;21517;-79
2022/09/21 11:57:36;;;;;;;3.02;2.35;;;;;;;11.93;93.36;99156.72;1848955;77;21050;-78
2022/09/21 12:00:18;;;;;;;2.05;1.95;;;;;;;12.15;93.76;99156.09;1848920;77;21426;-79
2022/09/21 12:03:07;;;;;;;2.45;2.00;;;;;;;12.44;92.96;99156.53;1849168;77;21061;-79
2022/09/21 12:06:17;;;;;;;2.00;1.90;;;;;;;12.63;92.06;99157.33;1848894;77;20980;-78
2022/09/21 12:09:21;;;;;;;6.12;1.30;;;;;;;12.74;90.47;99153.30;1849257;77;21050;-80
2022/09/21 12:11:52;;;;;;;;;;;;;;;12.91;89.00;99157.30;1851509;77;21601;-78
2022/09/21 12:14:40;;;;;;;3.80;1.20;;;;;;;13.01;87.24;99161.19;1849122;77;21137;-77